< < Back
Terminal Aerodrome Forecast


Current Version              Previous Versions:   1  2  3  4  5  6  7  8  9  

Terminal Aerodrome Forecast

880
FTUS42 KCHS 291133
TAFCHS
TAF
KCHS 291133Z 2912/3012 09004KT P6SM SCT250
     FM291700 17007KT P6SM SCT250
     FM300300 22008KT P6SM BKN120
     FM300800 26010KT P6SM SCT015 BKN035=

Latest METAR

029
SAUS80 KWBC 300400
MTRCHS
METAR KCHS 300356Z 00000KT 10SM SCT110 OVC150 09/06 A3017 RMK AO2 SLP215
T00940061


USA.gov is the U.S. government's official web portal to all federal, state and local government web resources and services.